createdAt,value
2023-03-27T00:02:08.227Z,8.77
2023-03-27T00:04:35.100Z,9.10
2023-03-27T00:07:01.962Z,8.20
2023-03-27T00:09:29.720Z,8.63
2023-03-27T00:11:56.661Z,8.55
2023-03-27T00:14:23.959Z,8.80
2023-03-27T00:16:50.971Z,9.68
2023-03-27T00:19:18.781Z,8.73
2023-03-27T00:21:45.438Z,8.50
2023-03-27T00:24:12.616Z,8.80
2023-03-27T00:26:40.399Z,8.65
2023-03-27T00:29:08.135Z,8.65
2023-03-27T00:31:35.141Z,8.18
2023-03-27T00:34:03.189Z,8.10
2023-03-27T00:36:30.107Z,8.40
2023-03-27T00:38:56.870Z,8.57
2023-03-27T00:41:23.719Z,8.85
2023-03-27T00:43:53.274Z,8.27
2023-03-27T00:46:40.201Z,8.35
2023-03-27T00:49:10.803Z,7.80
2023-03-27T00:51:41.009Z,8.02
2023-03-27T00:54:09.670Z,7.95
2023-03-27T00:56:38.562Z,7.50
2023-03-27T00:59:12.332Z,8.90
2023-03-27T01:01:40.012Z,8.43
2023-03-27T01:04:08.933Z,8.32
2023-03-27T01:06:36.840Z,7.75
2023-03-27T01:09:04.546Z,7.78
2023-03-27T01:12:01.849Z,6.65
2023-03-27T01:14:50.992Z,7.28
2023-03-27T01:17:30.317Z,6.88
2023-03-27T01:20:21.638Z,6.97
2023-03-27T01:23:58.485Z,7.25
2023-03-27T01:26:51.525Z,7.10
2023-03-27T01:29:25.205Z,6.95
2023-03-27T01:32:31.010Z,8.23
2023-03-27T01:35:07.949Z,6.80
2023-03-27T01:37:56.312Z,6.85
2023-03-27T01:40:33.253Z,6.85
2023-03-27T01:43:06.870Z,6.68
2023-03-27T01:45:55.895Z,5.40
2023-03-27T01:48:43.486Z,7.85
2023-03-27T01:51:18.055Z,6.55
2023-03-27T01:53:55.659Z,6.50
2023-03-27T01:56:27.396Z,6.55
2023-03-27T01:59:03.862Z,7.68
2023-03-27T02:01:45.622Z,7.20
2023-03-27T02:04:23.540Z,6.47
2023-03-27T02:07:03.455Z,6.68
2023-03-27T02:09:35.618Z,6.03
2023-03-27T02:12:11.750Z,6.25
2023-03-27T02:14:50.717Z,6.70
2023-03-27T02:17:19.128Z,7.22
2023-03-27T02:19:56.018Z,7.50
2023-03-27T02:22:37.306Z,6.93
2023-03-27T02:25:25.616Z,7.05
2023-03-27T02:28:16.996Z,6.60
2023-03-27T02:31:33.276Z,7.30
2023-03-27T02:34:07.975Z,8.10
2023-03-27T02:36:35.941Z,6.80
2023-03-27T02:39:15.773Z,7.13
2023-03-27T02:41:49.014Z,7.97
2023-03-27T02:45:10.143Z,6.68
2023-03-27T02:47:42.272Z,6.68
2023-03-27T02:50:30.695Z,7.55
2023-03-27T02:53:05.852Z,7.20
2023-03-27T02:55:38.862Z,7.60
2023-03-27T02:58:14.941Z,7.50
2023-03-27T03:00:59.278Z,6.18
2023-03-27T03:03:53.725Z,7.53
2023-03-27T03:06:42.172Z,7.00
2023-03-27T03:09:09.716Z,5.95
2023-03-27T03:11:44.545Z,7.68
2023-03-27T03:14:11.785Z,6.10
2023-03-27T03:16:39.297Z,6.70
2023-03-27T03:19:06.224Z,6.80
2023-03-27T03:21:33.809Z,6.57
2023-03-27T03:24:01.059Z,5.65
2023-03-27T03:26:27.797Z,6.30
2023-03-27T03:29:00.242Z,8.15
2023-03-27T03:34:16.798Z,7.93
2023-03-27T03:36:48.811Z,6.68
2023-03-27T03:39:18.562Z,8.32
2023-03-27T03:41:48.683Z,6.82
2023-03-27T03:44:15.385Z,6.60
2023-03-27T03:46:42.038Z,8.05
2023-03-27T03:49:09.544Z,5.85
2023-03-27T03:51:37.632Z,7.15
2023-03-27T03:54:06.755Z,5.68
2023-03-27T03:56:34.279Z,6.60
2023-03-27T03:59:01.494Z,5.90
2023-03-27T04:01:28.878Z,5.78
2023-03-27T04:04:00.343Z,6.65
2023-03-27T04:06:37.563Z,7.32
2023-03-27T04:09:05.523Z,10.07
2023-03-27T04:11:55.005Z,8.25
2023-03-27T04:14:45.530Z,7.85
2023-03-27T04:17:33.351Z,7.05
2023-03-27T04:20:02.090Z,7.03
2023-03-27T04:22:29.162Z,7.47
2023-03-27T04:24:57.157Z,7.70
2023-03-27T04:27:23.844Z,7.45
2023-03-27T04:30:14.023Z,6.63
2023-03-27T04:32:59.881Z,11.68
2023-03-27T04:35:39.882Z,7.20
2023-03-27T04:38:16.980Z,8.88
2023-03-27T04:40:49.074Z,8.52
2023-03-27T04:43:17.296Z,7.95
2023-03-27T04:45:48.064Z,8.18
2023-03-27T04:48:15.390Z,7.90
2023-03-27T04:50:50.617Z,8.85
2023-03-27T04:53:32.214Z,6.00
2023-03-27T04:56:01.045Z,6.38
2023-03-27T04:58:28.260Z,6.15
2023-03-27T05:00:57.523Z,6.72
2023-03-27T05:03:43.258Z,6.60
2023-03-27T05:06:16.260Z,7.43
2023-03-27T05:08:43.118Z,8.35
2023-03-27T05:11:19.148Z,7.03
2023-03-27T05:13:46.634Z,6.55
2023-03-27T05:16:17.198Z,6.15
2023-03-27T05:18:46.817Z,7.68
2023-03-27T05:21:13.652Z,7.40
2023-03-27T05:23:40.398Z,8.48
2023-03-27T05:26:08.219Z,9.35
2023-03-27T05:28:52.392Z,9.68
2023-03-27T05:31:19.145Z,9.20
2023-03-27T05:33:53.647Z,8.25
2023-03-27T05:36:22.102Z,8.85
2023-03-27T05:38:48.865Z,8.77
2023-03-27T05:41:27.928Z,9.63
2023-03-27T05:43:54.662Z,9.63
2023-03-27T05:46:22.300Z,9.35
2023-03-27T05:48:54.698Z,10.32
2023-03-27T05:51:22.545Z,11.15
2023-03-27T05:53:49.149Z,13.00
2023-03-27T05:56:21.570Z,11.73
2023-03-27T05:58:54.139Z,11.75
2023-03-27T06:01:23.674Z,14.38
2023-03-27T06:03:55.928Z,14.85
2023-03-27T06:06:35.603Z,17.08
2023-03-27T06:09:03.644Z,14.80
2023-03-27T06:11:31.113Z,16.77
2023-03-27T06:13:58.822Z,14.30
2023-03-27T06:16:38.144Z,16.15
2023-03-27T06:19:31.129Z,14.68
2023-03-27T06:21:57.795Z,14.02
2023-03-27T06:24:24.443Z,16.27
2023-03-27T06:26:51.286Z,16.38
2023-03-27T06:29:19.484Z,13.00
2023-03-27T06:31:49.446Z,15.68
2023-03-27T06:37:13.451Z,14.55
2023-03-27T06:39:42.734Z,15.73
2023-03-27T06:42:09.521Z,15.43
2023-03-27T06:44:51.587Z,16.20
2023-03-27T06:47:44.410Z,15.70
2023-03-27T06:53:01.575Z,15.68
2023-03-27T06:55:56.305Z,14.85
2023-03-27T06:58:24.502Z,14.65
2023-03-27T07:00:51.486Z,16.65
2023-03-27T07:03:20.097Z,16.75
2023-03-27T07:06:02.072Z,18.45
2023-03-27T07:08:36.536Z,15.30
2023-03-27T07:13:34.633Z,13.38
2023-03-27T07:16:05.184Z,14.48
2023-03-27T07:18:33.248Z,15.27
2023-03-27T07:21:00.258Z,14.88
2023-03-27T07:23:27.563Z,14.07
2023-03-27T07:26:01.723Z,15.75
2023-03-27T07:29:03.839Z,15.10
2023-03-27T07:31:42.354Z,14.57
2023-03-27T07:34:18.272Z,14.45
2023-03-27T07:37:05.006Z,12.25
2023-03-27T07:39:33.545Z,13.35
2023-03-27T07:42:00.640Z,13.88
2023-03-27T07:44:33.066Z,15.10
2023-03-27T07:47:04.237Z,14.13
2023-03-27T07:49:39.729Z,14.05
2023-03-27T07:52:09.007Z,14.55
2023-03-27T07:54:42.963Z,14.00
2023-03-27T07:57:10.983Z,15.30
2023-03-27T07:59:57.404Z,15.18
2023-03-27T08:02:31.299Z,18.02
2023-03-27T08:04:58.112Z,18.33
2023-03-27T08:07:25.355Z,17.55
2023-03-27T08:09:57.334Z,15.45
2023-03-27T08:12:24.186Z,16.17
2023-03-27T08:14:57.337Z,16.30
2023-03-27T08:17:28.138Z,16.55
2023-03-27T08:19:55.772Z,16.48
2023-03-27T08:22:24.465Z,18.50
2023-03-27T08:25:14.330Z,20.90
2023-03-27T08:27:43.323Z,22.60
2023-03-27T08:30:11.693Z,24.52
2023-03-27T08:32:41.235Z,26.42
2023-03-27T08:35:10.157Z,22.38
2023-03-27T08:37:36.752Z,23.52
2023-03-27T08:40:48.082Z,20.05
2023-03-27T08:43:33.486Z,20.63
2023-03-27T08:46:20.654Z,22.40
2023-03-27T08:49:14.997Z,26.02
2023-03-27T08:52:08.627Z,26.33
2023-03-27T08:54:39.315Z,25.27
2023-03-27T08:57:21.226Z,24.27
2023-03-27T08:59:57.371Z,26.50
2023-03-27T09:02:45.625Z,28.75
2023-03-27T09:05:19.278Z,27.67
2023-03-27T09:08:07.983Z,25.48
2023-03-27T09:10:37.568Z,29.45
2023-03-27T09:13:51.600Z,28.42
2023-03-27T09:16:31.830Z,32.72
2023-03-27T09:19:22.510Z,32.08
2023-03-27T09:21:52.656Z,31.02
2023-03-27T09:24:43.125Z,31.77
2023-03-27T09:27:32.444Z,32.30
2023-03-27T09:32:58.145Z,32.47
2023-03-27T09:35:25.288Z,34.78
2023-03-27T09:37:58.354Z,33.55
2023-03-27T09:40:45.698Z,29.08
2023-03-27T09:43:24.400Z,29.00
2023-03-27T09:45:53.416Z,27.27
2023-03-27T09:48:46.857Z,24.05
2023-03-27T09:54:56.086Z,30.55
2023-03-27T09:57:35.615Z,28.95
2023-03-27T10:00:09.798Z,32.75
2023-03-27T10:02:41.589Z,28.27
2023-03-27T10:05:19.952Z,21.80
2023-03-27T10:07:51.695Z,21.90
2023-03-27T10:10:45.344Z,22.15
2023-03-27T10:13:48.042Z,21.23
2023-03-27T10:16:21.444Z,25.02
2023-03-27T10:19:00.748Z,25.50
2023-03-27T10:21:35.438Z,24.70
2023-03-27T10:24:21.511Z,27.92
2023-03-27T10:27:12.009Z,31.15
2023-03-27T10:29:44.624Z,29.80
2023-03-27T10:32:14.508Z,30.83
2023-03-27T10:34:58.521Z,33.33
2023-03-27T10:37:41.047Z,39.65
2023-03-27T10:40:39.360Z,44.83
2023-03-27T10:43:30.327Z,40.65
2023-03-27T10:46:06.121Z,36.17
2023-03-27T10:48:47.600Z,39.42
2023-03-27T10:51:48.390Z,39.15
2023-03-27T10:54:44.267Z,43.63
2023-03-27T10:57:24.554Z,39.75
2023-03-27T11:00:13.383Z,41.58
2023-03-27T11:02:57.474Z,35.88
2023-03-27T11:05:30.328Z,35.35
2023-03-27T11:08:23.354Z,36.70
2023-03-27T11:10:50.919Z,38.38
2023-03-27T11:13:36.236Z,31.90
2023-03-27T11:16:39.728Z,38.35
2023-03-27T11:19:34.079Z,39.42
2023-03-27T11:22:45.220Z,35.33
2023-03-27T11:25:39.684Z,38.78
2023-03-27T11:28:19.421Z,38.25
2023-03-27T11:30:51.599Z,35.45
2023-03-27T11:33:36.910Z,34.85
2023-03-27T11:36:29.906Z,35.45
2023-03-27T11:39:36.348Z,35.63
2023-03-27T11:42:16.544Z,33.30
2023-03-27T11:44:43.571Z,31.70
2023-03-27T11:47:26.556Z,34.03
2023-03-27T11:50:07.880Z,35.88
2023-03-27T11:53:09.519Z,36.13
2023-03-27T11:56:16.665Z,35.78
2023-03-27T11:59:12.523Z,36.83
2023-03-27T12:01:55.698Z,32.90
2023-03-27T12:04:57.656Z,34.90
2023-03-27T12:07:52.677Z,37.97
2023-03-27T12:10:29.034Z,28.85
2023-03-27T12:13:41.273Z,30.27
2023-03-27T12:17:01.022Z,30.13
2023-03-27T12:20:11.628Z,30.67
2023-03-27T12:22:48.052Z,16.52
2023-03-27T12:26:16.813Z,12.30
2023-03-27T12:29:24.724Z,8.40
2023-03-27T12:32:21.720Z,6.50
2023-03-27T12:34:59.584Z,6.82
2023-03-27T12:38:02.064Z,8.40
2023-03-27T12:40:41.770Z,12.25
2023-03-27T12:43:21.794Z,10.15
2023-03-27T12:46:23.247Z,9.70
2023-03-27T12:48:59.922Z,14.25
2023-03-27T12:51:54.388Z,16.42
2023-03-27T12:55:06.913Z,19.65
2023-03-27T12:57:57.548Z,21.30
2023-03-27T13:01:01.240Z,24.42
2023-03-27T13:04:24.501Z,28.45
2023-03-27T13:06:57.376Z,30.63
2023-03-27T13:09:53.936Z,29.85
2023-03-27T13:12:38.914Z,34.58
2023-03-27T13:15:31.490Z,33.90
2023-03-27T13:18:25.454Z,33.05
2023-03-27T13:21:07.460Z,36.30
2023-03-27T13:24:03.663Z,32.08
2023-03-27T13:26:44.829Z,36.90
2023-03-27T13:29:30.548Z,37.25
2023-03-27T13:32:22.455Z,34.80
2023-03-27T13:35:27.029Z,32.65
2023-03-27T13:37:58.427Z,38.15
2023-03-27T13:40:36.530Z,33.53
2023-03-27T13:43:26.462Z,28.02
2023-03-27T13:46:06.057Z,23.65
2023-03-27T13:48:57.174Z,22.17
2023-03-27T13:51:48.020Z,23.10
2023-03-27T13:54:35.508Z,26.23
2023-03-27T13:57:14.684Z,24.95
2023-03-27T14:02:34.654Z,24.80
2023-03-27T14:05:13.441Z,25.15
2023-03-27T14:08:15.358Z,29.35
2023-03-27T14:11:21.564Z,26.98
2023-03-27T14:13:54.244Z,24.98
2023-03-27T14:16:47.680Z,22.60
2023-03-27T14:19:47.088Z,12.95
2023-03-27T14:22:27.823Z,8.88
2023-03-27T14:25:02.757Z,7.25
2023-03-27T14:27:43.132Z,6.70
2023-03-27T14:30:19.089Z,7.25
2023-03-27T14:32:55.143Z,7.03
2023-03-27T14:35:43.787Z,4.78
2023-03-27T14:38:33.597Z,5.38
2023-03-27T14:41:06.805Z,8.63
2023-03-27T14:43:48.164Z,9.30
2023-03-27T14:46:15.994Z,6.65
2023-03-27T14:48:46.352Z,7.22
2023-03-27T14:51:19.453Z,7.43
2023-03-27T14:53:49.588Z,6.60
2023-03-27T14:56:38.177Z,9.02
2023-03-27T14:59:26.584Z,8.65
2023-03-27T15:02:02.363Z,11.60
2023-03-27T15:04:31.472Z,12.52
2023-03-27T15:07:21.065Z,15.38
2023-03-27T15:10:25.930Z,15.68
2023-03-27T15:13:26.069Z,14.77
2023-03-27T15:15:59.661Z,13.23
2023-03-27T15:18:38.751Z,14.52
2023-03-27T15:21:14.228Z,13.80
2023-03-27T15:23:55.787Z,15.57
2023-03-27T15:26:26.913Z,12.75
2023-03-27T15:29:07.879Z,10.00
2023-03-27T15:31:36.321Z,9.18
2023-03-27T15:34:21.480Z,7.30
2023-03-27T15:36:58.329Z,7.43
2023-03-27T15:39:26.412Z,6.80
2023-03-27T15:42:02.522Z,6.95
2023-03-27T15:44:32.294Z,7.30
2023-03-27T15:47:00.404Z,5.90
2023-03-27T15:49:37.004Z,7.10
2023-03-27T15:52:31.254Z,6.65
2023-03-27T15:55:00.502Z,5.95
2023-03-27T15:57:31.168Z,5.57
2023-03-27T16:00:08.502Z,5.20
2023-03-27T16:02:40.391Z,5.82
2023-03-27T16:05:07.403Z,6.13
2023-03-27T16:07:42.344Z,5.90
2023-03-27T16:10:10.791Z,5.50
2023-03-27T16:13:01.814Z,8.35
2023-03-27T16:15:45.015Z,6.70
2023-03-27T16:18:19.840Z,6.05
2023-03-27T16:20:47.126Z,6.85
2023-03-27T16:23:13.782Z,6.00
2023-03-27T16:25:41.273Z,6.60
2023-03-27T16:28:09.414Z,6.78
2023-03-27T16:30:41.907Z,7.22
2023-03-27T16:33:17.439Z,7.00
2023-03-27T16:35:45.294Z,6.50
2023-03-27T16:38:13.784Z,6.50
2023-03-27T16:40:40.628Z,5.85
2023-03-27T16:43:07.445Z,6.50
2023-03-27T16:45:34.694Z,5.85
2023-03-27T16:48:01.551Z,12.38
2023-03-27T16:50:29.400Z,9.57
2023-03-27T16:52:56.429Z,15.57
2023-03-27T16:55:24.899Z,6.80
2023-03-27T16:57:53.874Z,6.97
2023-03-27T17:00:21.099Z,6.03
2023-03-27T17:02:47.854Z,5.03
2023-03-27T17:05:15.360Z,4.57
2023-03-27T17:07:42.363Z,4.85
2023-03-27T17:10:10.111Z,4.65
2023-03-27T17:12:36.921Z,4.88
2023-03-27T17:15:03.842Z,5.32
2023-03-27T17:17:30.875Z,4.95
2023-03-27T17:19:57.676Z,4.85
2023-03-27T17:22:26.245Z,5.32
2023-03-27T17:24:56.967Z,6.47
2023-03-27T17:27:26.271Z,5.20
2023-03-27T17:29:55.345Z,7.03
2023-03-27T17:32:22.273Z,5.68
2023-03-27T17:34:50.753Z,6.75
2023-03-27T17:37:18.648Z,5.50
2023-03-27T17:39:45.297Z,5.97
2023-03-27T17:42:12.197Z,8.27
2023-03-27T17:44:39.493Z,7.00
2023-03-27T17:47:07.433Z,6.85
2023-03-27T17:49:34.641Z,8.18
2023-03-27T17:52:07.483Z,10.85
2023-03-27T17:54:34.765Z,12.25
2023-03-27T17:57:01.673Z,13.85
2023-03-27T17:59:30.827Z,13.40
2023-03-27T18:01:58.252Z,13.55
2023-03-27T18:04:25.692Z,13.35
2023-03-27T18:06:52.879Z,13.80
2023-03-27T18:09:20.319Z,12.75
2023-03-27T18:11:47.076Z,12.55
2023-03-27T18:14:13.731Z,19.50
2023-03-27T18:16:40.481Z,14.52
2023-03-27T18:19:08.637Z,16.05
2023-03-27T18:21:35.991Z,15.30
2023-03-27T18:24:02.748Z,14.93
2023-03-27T18:26:29.573Z,13.35
2023-03-27T18:28:57.500Z,12.75
2023-03-27T18:31:24.522Z,13.35
2023-03-27T18:33:51.270Z,14.90
2023-03-27T18:36:18.053Z,12.50
2023-03-27T18:38:45.952Z,14.82
2023-03-27T18:41:13.453Z,15.90
2023-03-27T18:43:40.150Z,13.38
2023-03-27T18:46:07.614Z,12.48
2023-03-27T18:48:35.198Z,13.23
2023-03-27T18:51:03.981Z,12.43
2023-03-27T18:53:31.239Z,13.00
2023-03-27T18:55:58.914Z,13.13
2023-03-27T18:58:27.593Z,14.73
2023-03-27T19:00:55.621Z,13.88
2023-03-27T19:03:24.587Z,12.30
2023-03-27T19:05:52.649Z,12.57
2023-03-27T19:08:20.979Z,11.63
2023-03-27T19:10:47.710Z,12.43
2023-03-27T19:15:55.245Z,10.98
2023-03-27T19:18:57.192Z,11.68
2023-03-27T19:21:38.477Z,10.95
2023-03-27T19:24:08.872Z,11.43
2023-03-27T19:26:41.861Z,11.32
2023-03-27T19:29:09.059Z,10.85
2023-03-27T19:31:36.403Z,10.80
2023-03-27T19:34:03.953Z,13.23
2023-03-27T19:36:31.332Z,10.50
2023-03-27T19:38:59.104Z,10.90
2023-03-27T19:41:25.876Z,10.30
2023-03-27T19:43:53.011Z,10.30
2023-03-27T19:46:19.678Z,9.27
2023-03-27T19:48:51.243Z,9.60
2023-03-27T19:51:25.924Z,10.35
2023-03-27T19:53:52.702Z,9.80
2023-03-27T19:56:22.362Z,9.73
2023-03-27T19:58:49.355Z,9.40
2023-03-27T20:01:19.639Z,11.15
2023-03-27T20:03:46.563Z,11.07
2023-03-27T20:06:18.790Z,11.77
2023-03-27T20:08:45.677Z,11.68
2023-03-27T20:11:14.833Z,12.68
2023-03-27T20:13:53.208Z,10.60
2023-03-27T20:16:26.097Z,10.90
2023-03-27T20:19:03.252Z,10.65
2023-03-27T20:21:35.978Z,10.20
2023-03-27T20:24:06.642Z,10.23
2023-03-27T20:26:39.254Z,9.93
2023-03-27T20:29:17.853Z,10.25
2023-03-27T20:31:45.814Z,10.20
2023-03-27T20:34:12.531Z,9.45
2023-03-27T20:36:39.507Z,9.68
2023-03-27T20:39:21.071Z,10.52
2023-03-27T20:41:47.822Z,10.27
2023-03-27T20:44:17.118Z,10.05
2023-03-27T20:46:50.911Z,9.30
2023-03-27T20:49:39.844Z,10.32
2023-03-27T20:52:13.533Z,9.70
2023-03-27T20:54:40.502Z,10.85
2023-03-27T20:57:09.720Z,9.80
2023-03-27T20:59:36.466Z,9.82
2023-03-27T21:02:03.397Z,10.18
2023-03-27T21:04:31.560Z,10.68
2023-03-27T21:06:58.847Z,10.80
2023-03-27T21:09:27.067Z,10.73
2023-03-27T21:11:55.127Z,10.23
2023-03-27T21:14:22.218Z,11.57
2023-03-27T21:16:49.227Z,12.85
2023-03-27T21:19:16.889Z,11.57
2023-03-27T21:21:43.963Z,11.63
2023-03-27T21:24:10.760Z,10.30
2023-03-27T21:26:37.388Z,11.00
2023-03-27T21:29:04.298Z,10.57
2023-03-27T21:31:31.028Z,9.43
2023-03-27T21:33:57.752Z,9.25
2023-03-27T21:36:26.517Z,9.90
2023-03-27T21:38:55.091Z,9.52
2023-03-27T21:41:22.033Z,10.00
2023-03-27T21:43:48.678Z,9.63
2023-03-27T21:46:15.588Z,10.95
2023-03-27T21:48:44.593Z,9.68
2023-03-27T21:51:11.474Z,10.43
2023-03-27T21:53:38.248Z,10.55
2023-03-27T21:56:05.456Z,11.52
2023-03-27T21:58:32.060Z,11.40
2023-03-27T22:00:59.542Z,9.90
2023-03-27T22:03:28.301Z,11.40
2023-03-27T22:06:10.194Z,11.98
2023-03-27T22:08:38.941Z,13.65
2023-03-27T22:11:06.551Z,12.43
2023-03-27T22:13:36.042Z,12.20
2023-03-27T22:16:12.259Z,12.65
2023-03-27T22:18:39.400Z,11.45
2023-03-27T22:21:25.379Z,12.05
2023-03-27T22:23:53.553Z,10.65
2023-03-27T22:26:22.318Z,11.10
2023-03-27T22:28:49.589Z,10.80
2023-03-27T22:31:16.462Z,10.43
2023-03-27T22:33:43.188Z,9.90
2023-03-27T22:36:11.704Z,9.48
2023-03-27T22:38:39.282Z,10.55
2023-03-27T22:41:08.433Z,9.30
2023-03-27T22:43:35.111Z,10.45
2023-03-27T22:46:07.064Z,10.13
2023-03-27T22:48:34.486Z,9.57
2023-03-27T22:51:01.655Z,9.60
2023-03-27T22:53:28.906Z,9.00
2023-03-27T22:55:57.433Z,8.95
2023-03-27T22:58:24.845Z,9.77
2023-03-27T23:00:52.850Z,9.35
2023-03-27T23:03:20.353Z,10.02
2023-03-27T23:05:49.222Z,9.27
2023-03-27T23:08:18.100Z,10.25
2023-03-27T23:10:45.603Z,9.88
2023-03-27T23:13:12.697Z,9.52
2023-03-27T23:15:39.390Z,10.32
2023-03-27T23:18:06.613Z,9.88
2023-03-27T23:20:33.308Z,10.50
2023-03-27T23:23:00.291Z,13.73
2023-03-27T23:25:26.938Z,10.63
2023-03-27T23:27:53.756Z,10.77
2023-03-27T23:30:20.428Z,8.77
2023-03-27T23:32:47.121Z,8.48
2023-03-27T23:35:13.901Z,8.57
2023-03-27T23:37:40.766Z,8.88
2023-03-27T23:40:08.201Z,9.00
2023-03-27T23:42:34.871Z,10.95
2023-03-27T23:45:01.790Z,8.85
2023-03-27T23:47:28.452Z,8.73
2023-03-27T23:49:55.132Z,9.90
2023-03-27T23:52:21.755Z,8.55
2023-03-27T23:54:48.389Z,9.73
2023-03-27T23:57:15.156Z,8.80
2023-03-27T23:59:41.862Z,9.32
